createdAt,value
2022-12-04T00:00:26.718Z,28.55
2022-12-04T00:02:53.249Z,26.38
2022-12-04T00:05:19.792Z,26.95
2022-12-04T00:07:46.441Z,23.87
2022-12-04T00:10:12.966Z,28.73
2022-12-04T00:12:39.556Z,26.23
2022-12-04T00:17:55.403Z,27.97
2022-12-04T00:20:22.040Z,26.33
2022-12-04T00:22:48.612Z,24.98
2022-12-04T00:25:15.316Z,25.88
2022-12-04T00:27:41.964Z,22.00
2022-12-04T00:30:11.463Z,25.42
2022-12-04T00:32:37.952Z,26.55
2022-12-04T00:35:07.101Z,26.38
2022-12-04T00:37:34.496Z,24.37
2022-12-04T00:40:01.117Z,26.13
2022-12-04T00:42:27.583Z,26.23
2022-12-04T00:44:54.068Z,25.52
2022-12-04T00:47:23.415Z,26.10
2022-12-04T00:49:50.192Z,22.10
2022-12-04T00:52:18.173Z,26.20
2022-12-04T00:54:49.837Z,23.55
2022-12-04T00:57:16.617Z,25.40
2022-12-04T00:59:43.103Z,18.50
2022-12-04T01:02:11.773Z,23.80
2022-12-04T01:04:38.255Z,21.77
2022-12-04T01:07:05.527Z,25.67
2022-12-04T01:09:33.748Z,22.30
2022-12-04T01:12:00.236Z,29.25
2022-12-04T01:14:26.853Z,22.98
2022-12-04T01:16:53.424Z,25.63
2022-12-04T01:19:20.228Z,26.13
2022-12-04T01:21:46.740Z,23.52
2022-12-04T01:24:13.256Z,24.80
2022-12-04T01:26:41.100Z,22.10
2022-12-04T01:29:07.843Z,28.40
2022-12-04T01:31:34.577Z,26.33
2022-12-04T01:34:01.110Z,24.67
2022-12-04T01:36:28.538Z,22.38
2022-12-04T01:38:55.787Z,23.43
2022-12-04T01:41:25.199Z,22.55
2022-12-04T01:44:15.338Z,24.95
2022-12-04T01:46:43.441Z,26.83
2022-12-04T01:49:13.163Z,24.80
2022-12-04T01:51:41.994Z,25.13
2022-12-04T01:54:12.073Z,28.05
2022-12-04T01:56:41.370Z,24.05
2022-12-04T01:59:09.264Z,22.98
2022-12-04T02:01:42.615Z,21.13
2022-12-04T02:04:09.281Z,23.38
2022-12-04T02:06:35.817Z,27.08
2022-12-04T02:09:03.350Z,24.42
2022-12-04T02:11:38.285Z,25.53
2022-12-04T02:14:20.024Z,25.13
2022-12-04T02:16:56.453Z,21.98
2022-12-04T02:19:55.740Z,24.70
2022-12-04T02:22:36.895Z,23.20
2022-12-04T02:25:10.415Z,24.50
2022-12-04T02:27:59.394Z,25.42
2022-12-04T02:30:28.941Z,29.52
2022-12-04T02:33:02.326Z,23.17
2022-12-04T02:35:33.296Z,26.38
2022-12-04T02:38:06.215Z,24.13
2022-12-04T02:40:39.824Z,23.27
2022-12-04T02:43:13.789Z,22.95
2022-12-04T02:45:45.294Z,25.65
2022-12-04T02:48:16.963Z,27.45
2022-12-04T02:50:46.192Z,24.90
2022-12-04T02:53:16.381Z,24.85
2022-12-04T02:55:48.432Z,25.70
2022-12-04T02:58:25.405Z,26.00
2022-12-04T03:00:55.812Z,28.13
2022-12-04T03:03:24.989Z,22.45
2022-12-04T03:05:57.625Z,26.00
2022-12-04T03:08:29.498Z,23.63
2022-12-04T03:10:59.288Z,21.73
2022-12-04T03:13:32.916Z,26.73
2022-12-04T03:16:03.907Z,29.45
2022-12-04T03:18:34.115Z,27.10
2022-12-04T03:21:03.840Z,27.10
2022-12-04T03:23:34.184Z,28.05
2022-12-04T03:26:04.741Z,23.73
2022-12-04T03:28:41.624Z,27.15
2022-12-04T03:31:09.757Z,30.05
2022-12-04T03:33:42.063Z,30.80
2022-12-04T03:36:16.624Z,20.00
2022-12-04T03:38:49.258Z,24.85
2022-12-04T03:41:24.582Z,27.80
2022-12-04T03:43:59.094Z,29.88
2022-12-04T03:46:31.272Z,24.98
2022-12-04T03:49:04.501Z,27.40
2022-12-04T03:51:36.444Z,24.83
2022-12-04T03:54:07.609Z,26.05
2022-12-04T03:56:37.619Z,24.38
2022-12-04T03:59:09.094Z,30.70
2022-12-04T04:01:40.992Z,27.90
2022-12-04T04:04:12.436Z,23.67
2022-12-04T04:06:44.141Z,24.42
2022-12-04T04:09:15.114Z,24.98
2022-12-04T04:11:47.305Z,23.58
2022-12-04T04:14:21.940Z,20.27
2022-12-04T04:16:52.804Z,25.60
2022-12-04T04:19:21.572Z,22.25
2022-12-04T04:21:50.367Z,22.33
2022-12-04T04:24:28.033Z,21.73
2022-12-04T04:26:55.749Z,24.83
2022-12-04T04:29:23.645Z,27.33
2022-12-04T04:31:59.573Z,20.73
2022-12-04T04:34:37.897Z,18.27
2022-12-04T04:37:11.797Z,24.08
2022-12-04T04:39:44.317Z,23.63
2022-12-04T04:42:17.687Z,22.52
2022-12-04T04:44:51.272Z,21.37
2022-12-04T04:47:24.072Z,22.23
2022-12-04T04:49:52.578Z,19.50
2022-12-04T04:52:22.222Z,20.90
2022-12-04T04:54:48.725Z,18.13
2022-12-04T04:57:26.088Z,21.08
2022-12-04T04:59:54.172Z,17.92
2022-12-04T05:02:20.990Z,19.70
2022-12-04T05:04:47.640Z,19.20
2022-12-04T05:07:14.085Z,21.10
2022-12-04T05:09:41.488Z,14.38
2022-12-04T05:12:09.092Z,12.80
2022-12-04T05:14:35.597Z,20.47
2022-12-04T05:17:10.745Z,18.95
2022-12-04T05:19:39.112Z,14.52
2022-12-04T05:22:05.578Z,15.63
2022-12-04T05:24:32.109Z,15.97
2022-12-04T05:26:58.835Z,17.08
2022-12-04T05:29:25.276Z,13.57
2022-12-04T05:31:51.731Z,19.13
2022-12-04T05:34:19.563Z,15.73
2022-12-04T05:36:46.018Z,17.17
2022-12-04T05:39:13.364Z,15.38
2022-12-04T05:41:39.847Z,12.88
2022-12-04T05:44:06.357Z,14.53
2022-12-04T05:46:32.970Z,14.45
2022-12-04T05:48:59.544Z,16.33
2022-12-04T05:51:27.550Z,12.02
2022-12-04T05:53:54.459Z,13.15
2022-12-04T05:56:20.992Z,17.55
2022-12-04T05:58:47.651Z,15.20
2022-12-04T06:01:17.732Z,19.02
2022-12-04T06:03:44.528Z,14.73
2022-12-04T06:06:17.503Z,17.23
2022-12-04T06:08:50.348Z,11.52
2022-12-04T06:11:19.325Z,16.30
2022-12-04T06:13:46.542Z,17.80
2022-12-04T06:16:14.619Z,12.77
2022-12-04T06:18:41.598Z,17.45
2022-12-04T06:21:08.920Z,15.52
2022-12-04T06:23:35.883Z,13.40
2022-12-04T06:26:07.068Z,15.63
2022-12-04T06:28:34.725Z,17.00
2022-12-04T06:31:02.010Z,14.32
2022-12-04T06:33:28.751Z,16.20
2022-12-04T06:35:58.716Z,16.88
2022-12-04T06:38:25.391Z,17.73
2022-12-04T06:40:51.857Z,10.13
2022-12-04T06:43:19.669Z,14.23
2022-12-04T06:45:46.298Z,10.93
2022-12-04T06:48:12.809Z,12.25
2022-12-04T06:50:39.426Z,12.75
2022-12-04T06:53:08.464Z,10.43
2022-12-04T06:55:35.273Z,12.97
2022-12-04T06:58:01.817Z,9.93
2022-12-04T07:00:29.639Z,11.30
2022-12-04T07:02:56.243Z,11.70
2022-12-04T07:05:22.698Z,10.50
2022-12-04T07:07:49.189Z,8.88
2022-12-04T07:10:16.054Z,9.75
2022-12-04T07:12:42.674Z,9.52
2022-12-04T07:15:10.229Z,8.23
2022-12-04T07:17:38.046Z,11.47
2022-12-04T07:20:05.725Z,7.65
2022-12-04T07:22:35.199Z,6.90
2022-12-04T07:25:01.821Z,7.03
2022-12-04T07:27:31.702Z,10.23
2022-12-04T07:29:58.582Z,8.43
2022-12-04T07:32:25.103Z,8.10
2022-12-04T07:34:52.973Z,9.95
2022-12-04T07:37:19.505Z,10.23
2022-12-04T07:39:45.959Z,8.65
2022-12-04T07:42:12.576Z,7.63
2022-12-04T07:44:39.008Z,11.02
2022-12-04T07:47:05.627Z,9.18
2022-12-04T07:49:32.168Z,9.15
2022-12-04T07:52:00.299Z,8.45
2022-12-04T07:54:26.761Z,8.35
2022-12-04T07:56:53.253Z,8.80
2022-12-04T07:59:19.770Z,8.43
2022-12-04T08:01:46.308Z,6.45
2022-12-04T08:04:12.957Z,8.10
2022-12-04T08:06:39.856Z,7.88
2022-12-04T08:09:10.223Z,8.27
2022-12-04T08:11:37.394Z,7.35
2022-12-04T08:14:05.575Z,8.50
2022-12-04T08:16:35.215Z,9.10
2022-12-04T08:19:01.779Z,7.75
2022-12-04T08:21:31.239Z,7.40
2022-12-04T08:23:59.751Z,7.20
2022-12-04T08:26:31.983Z,8.55
2022-12-04T08:29:00.799Z,6.53
2022-12-04T08:31:29.570Z,7.43
2022-12-04T08:33:58.535Z,6.15
2022-12-04T08:36:25.516Z,9.27
2022-12-04T08:38:52.210Z,7.07
2022-12-04T08:41:20.194Z,9.20
2022-12-04T08:43:51.162Z,6.43
2022-12-04T08:46:18.724Z,5.70
2022-12-04T08:48:46.462Z,7.25
2022-12-04T08:51:14.865Z,7.95
2022-12-04T08:53:41.588Z,5.95
2022-12-04T08:56:08.613Z,8.67
2022-12-04T08:58:35.123Z,8.52
2022-12-04T09:01:07.716Z,7.80
2022-12-04T09:03:34.696Z,7.75
2022-12-04T09:06:02.578Z,8.57
2022-12-04T09:08:29.331Z,9.17
2022-12-04T09:11:01.838Z,9.40
2022-12-04T09:13:28.359Z,10.55
2022-12-04T09:15:55.042Z,8.50
2022-12-04T09:18:22.933Z,7.60
2022-12-04T09:20:59.054Z,8.55
2022-12-04T09:23:26.299Z,8.82
2022-12-04T09:25:52.813Z,7.90
2022-12-04T09:28:19.672Z,8.95
2022-12-04T09:30:55.467Z,7.63
2022-12-04T09:33:23.352Z,8.18
2022-12-04T09:35:50.165Z,8.18
2022-12-04T09:38:16.647Z,9.10
2022-12-04T09:40:50.532Z,9.40
2022-12-04T09:43:28.159Z,8.07
2022-12-04T09:46:02.342Z,9.90
2022-12-04T09:48:33.334Z,10.25
2022-12-04T09:51:02.342Z,8.45
2022-12-04T09:56:19.832Z,9.02
2022-12-04T09:58:52.539Z,9.52
2022-12-04T10:01:24.089Z,9.90
2022-12-04T10:03:54.235Z,8.13
2022-12-04T10:06:24.224Z,10.70
2022-12-04T10:08:58.662Z,11.70
2022-12-04T10:11:36.765Z,9.50
2022-12-04T10:14:14.361Z,8.18
2022-12-04T10:16:56.380Z,8.77
2022-12-04T10:19:32.466Z,9.03
2022-12-04T10:22:10.424Z,7.80
2022-12-04T10:24:43.654Z,9.95
2022-12-04T10:27:14.993Z,9.50
2022-12-04T10:29:43.639Z,11.50
2022-12-04T10:32:19.916Z,9.57
2022-12-04T10:34:50.391Z,10.05
2022-12-04T10:37:16.900Z,8.27
2022-12-04T10:39:50.168Z,8.45
2022-12-04T10:42:26.456Z,9.52
2022-12-04T10:44:53.205Z,9.30
2022-12-04T10:47:20.703Z,10.57
2022-12-04T10:49:48.924Z,10.63
2022-12-04T10:52:15.690Z,7.63
2022-12-04T10:54:46.126Z,7.78
2022-12-04T10:57:13.165Z,10.20
2022-12-04T10:59:48.082Z,10.60
2022-12-04T11:02:20.934Z,11.82
2022-12-04T11:04:55.445Z,10.07
2022-12-04T11:07:24.432Z,7.93
2022-12-04T11:09:59.524Z,9.20
2022-12-04T11:12:26.266Z,9.50
2022-12-04T11:15:11.817Z,8.98
2022-12-04T11:17:38.332Z,7.72
2022-12-04T11:23:25.911Z,11.27
2022-12-04T11:25:58.223Z,11.05
2022-12-04T11:28:45.564Z,10.52
2022-12-04T11:31:18.519Z,9.90
2022-12-04T11:33:51.443Z,7.60
2022-12-04T11:36:21.602Z,8.07
2022-12-04T11:38:50.774Z,9.63
2022-12-04T11:41:25.961Z,9.68
2022-12-04T11:43:56.700Z,7.97
2022-12-04T11:46:28.866Z,9.48
2022-12-04T11:48:55.537Z,9.63
2022-12-04T11:51:32.541Z,8.38
2022-12-04T11:54:06.969Z,8.90
2022-12-04T11:56:38.551Z,8.88
2022-12-04T11:59:29.075Z,8.35
2022-12-04T12:02:03.109Z,10.13
2022-12-04T12:04:45.613Z,9.23
2022-12-04T12:07:25.700Z,9.55
2022-12-04T12:10:01.592Z,7.45
2022-12-04T12:12:40.801Z,10.73
2022-12-04T12:15:21.887Z,9.87
2022-12-04T12:17:59.150Z,10.02
2022-12-04T12:20:32.879Z,8.93
2022-12-04T12:23:11.619Z,12.25
2022-12-04T12:25:52.294Z,11.52
2022-12-04T12:28:37.720Z,7.73
2022-12-04T12:31:32.169Z,10.10
2022-12-04T12:34:05.024Z,12.02
2022-12-04T12:36:41.289Z,10.02
2022-12-04T12:39:16.108Z,13.32
2022-12-04T12:41:50.279Z,11.53
2022-12-04T12:44:21.494Z,9.30
2022-12-04T12:46:54.195Z,10.90
2022-12-04T12:49:28.587Z,12.27
2022-12-04T12:52:01.294Z,9.57
2022-12-04T12:54:36.669Z,9.90
2022-12-04T12:57:11.292Z,9.80
2022-12-04T12:59:41.950Z,9.38
2022-12-04T13:02:17.877Z,12.73
2022-12-04T13:04:48.863Z,10.77
2022-12-04T13:07:31.760Z,9.30
2022-12-04T13:10:04.645Z,10.55
2022-12-04T13:12:39.488Z,10.50
2022-12-04T13:15:06.942Z,10.18
2022-12-04T13:17:38.843Z,10.23
2022-12-04T13:20:14.080Z,9.93
2022-12-04T13:22:51.714Z,10.77
2022-12-04T13:25:36.375Z,11.88
2022-12-04T13:28:17.576Z,10.18
2022-12-04T13:30:48.513Z,13.35
2022-12-04T13:33:49.830Z,10.33
2022-12-04T13:36:49.222Z,10.65
2022-12-04T13:39:36.115Z,8.98
2022-12-04T13:42:26.147Z,12.30
2022-12-04T13:44:57.096Z,13.35
2022-12-04T13:47:30.953Z,11.93
2022-12-04T13:50:25.186Z,11.85
2022-12-04T13:52:51.722Z,15.48
2022-12-04T13:55:27.198Z,13.73
2022-12-04T13:57:55.773Z,14.90
2022-12-04T14:00:30.945Z,13.27
2022-12-04T14:03:00.032Z,17.38
2022-12-04T14:05:30.501Z,15.77
2022-12-04T14:08:07.178Z,14.57
2022-12-04T14:10:36.293Z,16.30
2022-12-04T14:13:06.039Z,17.47
2022-12-04T14:15:36.991Z,16.45
2022-12-04T14:18:16.105Z,20.15
2022-12-04T14:20:44.413Z,17.13
2022-12-04T14:23:28.084Z,14.88
2022-12-04T14:25:55.568Z,17.33
2022-12-04T14:28:27.710Z,19.85
2022-12-04T14:31:19.865Z,18.35
2022-12-04T14:33:49.481Z,16.75
2022-12-04T14:36:19.282Z,15.55
2022-12-04T14:38:48.839Z,17.33
2022-12-04T14:41:23.802Z,19.67
2022-12-04T14:43:50.558Z,17.67
2022-12-04T14:46:22.554Z,17.63
2022-12-04T14:48:58.977Z,16.25
2022-12-04T14:51:34.329Z,17.30
2022-12-04T14:54:09.217Z,16.08
2022-12-04T14:56:57.882Z,12.43
2022-12-04T14:59:33.701Z,14.32
2022-12-04T15:02:01.795Z,12.40
2022-12-04T15:04:32.645Z,14.07
2022-12-04T15:07:00.617Z,15.40
2022-12-04T15:09:28.367Z,15.10
2022-12-04T15:11:58.414Z,18.38
2022-12-04T15:14:25.121Z,13.47
2022-12-04T15:17:03.598Z,17.95
2022-12-04T15:19:30.186Z,20.83
2022-12-04T15:21:59.567Z,18.50
2022-12-04T15:24:26.158Z,14.32
2022-12-04T15:26:54.256Z,22.30
2022-12-04T15:29:25.515Z,17.08
2022-12-04T15:31:54.757Z,14.48
2022-12-04T15:34:25.740Z,12.20
2022-12-04T15:36:59.644Z,16.53
2022-12-04T15:39:28.248Z,16.17
2022-12-04T15:42:05.125Z,16.88
2022-12-04T15:44:33.125Z,19.90
2022-12-04T15:47:02.404Z,22.52
2022-12-04T15:49:31.397Z,15.70
2022-12-04T15:52:06.801Z,17.23
2022-12-04T15:54:50.375Z,16.17
2022-12-04T15:57:28.737Z,13.95
2022-12-04T15:59:56.735Z,13.68
2022-12-04T16:02:25.534Z,15.43
2022-12-04T16:04:53.752Z,16.83
2022-12-04T16:07:22.488Z,15.75
2022-12-04T16:10:01.094Z,16.70
2022-12-04T16:12:31.779Z,14.63
2022-12-04T16:14:58.635Z,14.60
2022-12-04T16:17:30.325Z,14.57
2022-12-04T16:19:59.297Z,16.00
2022-12-04T16:22:26.562Z,13.48
2022-12-04T16:24:54.017Z,16.25
2022-12-04T16:27:22.830Z,14.52
2022-12-04T16:29:49.463Z,17.20
2022-12-04T16:32:18.353Z,15.93
2022-12-04T16:35:15.193Z,16.70
2022-12-04T16:37:41.779Z,16.93
2022-12-04T16:40:09.819Z,17.65
2022-12-04T16:42:36.357Z,15.80
2022-12-04T16:45:03.307Z,17.23
2022-12-04T16:47:31.938Z,16.83
2022-12-04T16:49:59.754Z,16.73
2022-12-04T16:52:26.324Z,16.35
2022-12-04T16:54:52.783Z,18.27
2022-12-04T16:57:19.319Z,13.80
2022-12-04T16:59:45.887Z,16.52
2022-12-04T17:02:16.038Z,15.70
2022-12-04T17:04:42.754Z,14.68
2022-12-04T17:07:10.809Z,13.68
2022-12-04T17:09:37.338Z,14.43
2022-12-04T17:12:04.261Z,13.52
2022-12-04T17:14:32.481Z,13.73
2022-12-04T17:17:02.321Z,15.23
2022-12-04T17:19:29.360Z,15.57
2022-12-04T17:21:55.874Z,15.15
2022-12-04T17:24:23.754Z,12.65
2022-12-04T17:26:50.263Z,13.23
2022-12-04T17:29:16.780Z,19.25
2022-12-04T17:31:45.423Z,15.60
2022-12-04T17:34:12.020Z,15.15
2022-12-04T17:36:38.521Z,13.57
2022-12-04T17:39:05.038Z,14.77
2022-12-04T17:41:33.061Z,13.73
2022-12-04T17:44:00.063Z,16.83
2022-12-04T17:46:26.794Z,13.13
2022-12-04T17:48:56.339Z,14.40
2022-12-04T17:51:24.296Z,14.98
2022-12-04T17:53:51.364Z,17.88
2022-12-04T17:56:20.433Z,19.23
2022-12-04T17:58:49.782Z,19.50
2022-12-04T18:01:19.438Z,20.93
2022-12-04T18:03:49.702Z,15.35
2022-12-04T18:06:18.548Z,19.15
2022-12-04T18:08:49.754Z,20.35
2022-12-04T18:11:16.930Z,17.98
2022-12-04T18:13:43.526Z,11.67
2022-12-04T18:16:11.971Z,15.27
2022-12-04T18:18:38.844Z,16.20
2022-12-04T18:21:07.791Z,15.25
2022-12-04T18:23:34.297Z,14.75
2022-12-04T18:26:00.921Z,14.10
2022-12-04T18:28:29.722Z,12.80
2022-12-04T18:30:56.353Z,13.82
2022-12-04T18:33:24.500Z,15.90
2022-12-04T18:35:54.338Z,15.45
2022-12-04T18:38:21.084Z,14.80
2022-12-04T18:40:47.624Z,16.08
2022-12-04T18:43:14.170Z,12.32
2022-12-04T18:45:40.809Z,14.60
2022-12-04T18:48:07.432Z,12.57
2022-12-04T18:50:35.561Z,19.23
2022-12-04T18:53:02.157Z,14.70
2022-12-04T18:55:28.720Z,14.35
2022-12-04T18:57:55.270Z,16.48
2022-12-04T19:00:22.120Z,17.98
2022-12-04T19:02:48.679Z,17.03
2022-12-04T19:05:15.433Z,16.52
2022-12-04T19:08:04.860Z,14.90
2022-12-04T19:11:32.211Z,19.25
2022-12-04T19:14:23.882Z,19.65
2022-12-04T19:17:25.232Z,19.70
2022-12-04T19:20:13.150Z,20.98
2022-12-04T19:26:35.199Z,21.08
2022-12-04T19:29:30.335Z,23.98
2022-12-04T19:35:35.980Z,23.17
2022-12-04T19:38:50.663Z,26.08
2022-12-04T19:59:04.147Z,28.88
2022-12-04T20:12:37.971Z,25.13
2022-12-04T20:15:57.413Z,31.73
2022-12-04T20:18:59.238Z,29.37
2022-12-04T20:21:29.983Z,30.48
2022-12-04T20:24:09.218Z,26.75
2022-12-04T20:26:51.779Z,34.42
2022-12-04T20:29:38.522Z,32.85
2022-12-04T20:35:27.322Z,31.65
2022-12-04T20:38:09.243Z,26.45
2022-12-04T20:40:44.665Z,33.63
2022-12-04T20:43:17.721Z,32.08
2022-12-04T20:48:50.537Z,38.35
2022-12-04T20:51:29.095Z,33.10
2022-12-04T20:54:04.057Z,24.67
2022-12-04T20:56:48.281Z,32.30
2022-12-04T20:59:38.263Z,39.45
2022-12-04T21:02:20.771Z,33.67
2022-12-04T21:04:54.053Z,32.33
2022-12-04T21:07:23.948Z,32.05
2022-12-04T21:09:53.837Z,35.50
2022-12-04T21:12:32.984Z,35.58
2022-12-04T21:15:20.336Z,35.75
2022-12-04T21:17:58.890Z,31.10
2022-12-04T21:20:34.138Z,34.78
2022-12-04T21:23:05.232Z,33.63
2022-12-04T21:25:41.074Z,29.83
2022-12-04T21:28:41.775Z,37.17
2022-12-04T21:31:13.141Z,37.83
2022-12-04T21:33:44.398Z,32.15
2022-12-04T21:36:22.192Z,34.53
2022-12-04T21:39:05.630Z,34.85
2022-12-04T21:41:46.854Z,28.27
2022-12-04T21:44:15.625Z,28.25
2022-12-04T21:47:03.136Z,28.52
2022-12-04T21:49:35.064Z,31.57
2022-12-04T21:52:07.548Z,25.60
2022-12-04T21:54:39.325Z,29.20
2022-12-04T21:57:09.776Z,28.98
2022-12-04T21:59:40.996Z,29.03
2022-12-04T22:02:09.443Z,27.80
2022-12-04T22:04:40.897Z,30.95
2022-12-04T22:07:10.348Z,31.90
2022-12-04T22:09:54.758Z,28.77
2022-12-04T22:12:49.053Z,28.67
2022-12-04T22:15:27.999Z,22.98
2022-12-04T22:17:58.460Z,23.40
2022-12-04T22:20:24.986Z,27.85
2022-12-04T22:22:52.796Z,25.45
2022-12-04T22:25:19.303Z,23.13
2022-12-04T22:27:45.784Z,25.83
2022-12-04T22:30:13.205Z,27.30
2022-12-04T22:32:39.696Z,24.10
2022-12-04T22:35:06.603Z,20.13
2022-12-04T22:37:33.344Z,26.20
2022-12-04T22:40:01.352Z,19.80
2022-12-04T22:42:27.895Z,21.90
2022-12-04T22:44:54.375Z,26.00
2022-12-04T22:47:20.840Z,29.25
2022-12-04T22:49:47.384Z,22.00
2022-12-04T22:52:13.969Z,22.83
2022-12-04T22:54:40.455Z,22.75
2022-12-04T22:57:08.566Z,23.33
2022-12-04T22:59:35.103Z,26.67
2022-12-04T23:02:01.809Z,22.10
2022-12-04T23:04:29.062Z,24.52
2022-12-04T23:06:55.671Z,22.25
2022-12-04T23:09:22.158Z,25.88
2022-12-04T23:11:50.645Z,24.42
2022-12-04T23:14:18.531Z,22.47
2022-12-04T23:16:45.109Z,22.13
2022-12-04T23:19:13.935Z,26.80
2022-12-04T23:21:40.996Z,28.85
2022-12-04T23:24:08.021Z,23.40
2022-12-04T23:26:36.269Z,20.27
2022-12-04T23:29:05.336Z,26.58
2022-12-04T23:31:38.228Z,21.48
2022-12-04T23:34:05.698Z,24.08
2022-12-04T23:36:32.563Z,23.65
2022-12-04T23:38:59.253Z,26.23
2022-12-04T23:41:27.539Z,24.52
2022-12-04T23:43:54.827Z,21.80
2022-12-04T23:46:23.590Z,31.60
2022-12-04T23:48:51.695Z,29.33
2022-12-04T23:51:19.892Z,26.53
2022-12-04T23:53:47.426Z,27.02
2022-12-04T23:56:16.257Z,28.20
2022-12-04T23:58:44.266Z,25.75
